Terminal Aerodrome Forecast
Issued by NWS Twin Cities, MN

Home | Current Version | Previous Version | Graphics & Text | Print | Product List | Glossary On
Versions: 1 2 3 4 5 6 7 8 9 10 11 12 13 14 15 16 17 18
000
FTUS43 KMPX 291100
TAFSTC
TAF
KSTC 291128Z 2912/3012 30012KT P6SM BKN015 OVC040
     FM291600 31007KT P6SM BKN025
     FM291930 27006KT P6SM SCT035
     FM300000 19005KT P6SM BKN110
     FM300600 16006KT P6SM VCSH BKN090=

USA.gov is the U.S. government's official web portal to all federal, state and local government web resources and services.